sensor_id;sensor_type;location;lat;lon;timestamp;P1;durP1;ratioP1;P2;durP2;ratioP2
18822;SDS011;9540;51.550;7.980;2023-04-01T00:02:19;2.78;;;1.42;;
18822;SDS011;9540;51.550;7.980;2023-04-01T00:04:50;4.00;;;1.15;;
18822;SDS011;9540;51.550;7.980;2023-04-01T00:07:17;2.70;;;1.25;;
18822;SDS011;9540;51.550;7.980;2023-04-01T00:09:44;1.13;;;0.95;;
18822;SDS011;9540;51.550;7.980;2023-04-01T00:12:12;3.67;;;1.35;;
18822;SDS011;9540;51.550;7.980;2023-04-01T00:14:39;2.45;;;1.23;;
18822;SDS011;9540;51.550;7.980;2023-04-01T00:17:06;3.08;;;1.30;;
18822;SDS011;9540;51.550;7.980;2023-04-01T00:19:35;4.50;;;1.00;;
18822;SDS011;9540;51.550;7.980;2023-04-01T00:22:02;5.15;;;1.23;;
18822;SDS011;9540;51.550;7.980;2023-04-01T00:24:30;3.00;;;1.25;;
18822;SDS011;9540;51.550;7.980;2023-04-01T00:26:57;3.15;;;1.50;;
18822;SDS011;9540;51.550;7.980;2023-04-01T00:29:24;1.95;;;1.02;;
18822;SDS011;9540;51.550;7.980;2023-04-01T00:31:55;4.10;;;1.40;;
18822;SDS011;9540;51.550;7.980;2023-04-01T00:34:22;2.65;;;1.02;;
18822;SDS011;9540;51.550;7.980;2023-04-01T00:36:52;1.20;;;1.10;;
18822;SDS011;9540;51.550;7.980;2023-04-01T00:39:19;5.15;;;1.20;;
18822;SDS011;9540;51.550;7.980;2023-04-01T00:41:47;2.92;;;1.20;;
18822;SDS011;9540;51.550;7.980;2023-04-01T00:44:15;5.10;;;1.27;;
18822;SDS011;9540;51.550;7.980;2023-04-01T00:46:44;3.50;;;1.00;;
18822;SDS011;9540;51.550;7.980;2023-04-01T00:49:11;1.10;;;0.82;;
18822;SDS011;9540;51.550;7.980;2023-04-01T00:51:39;1.05;;;0.95;;
18822;SDS011;9540;51.550;7.980;2023-04-01T00:54:09;2.25;;;1.10;;
18822;SDS011;9540;51.550;7.980;2023-04-01T00:56:38;4.60;;;1.25;;
18822;SDS011;9540;51.550;7.980;2023-04-01T00:59:10;2.53;;;1.02;;
18822;SDS011;9540;51.550;7.980;2023-04-01T01:01:40;1.55;;;0.80;;
18822;SDS011;9540;51.550;7.980;2023-04-01T01:04:19;2.72;;;1.00;;
18822;SDS011;9540;51.550;7.980;2023-04-01T01:06:50;1.85;;;1.00;;
18822;SDS011;9540;51.550;7.980;2023-04-01T01:09:31;4.25;;;1.45;;
18822;SDS011;9540;51.550;7.980;2023-04-01T01:12:07;4.10;;;0.90;;
18822;SDS011;9540;51.550;7.980;2023-04-01T01:14:43;2.83;;;1.20;;
18822;SDS011;9540;51.550;7.980;2023-04-01T01:17:24;3.75;;;1.65;;
18822;SDS011;9540;51.550;7.980;2023-04-01T01:29:06;1.92;;;1.00;;
18822;SDS011;9540;51.550;7.980;2023-04-01T01:31:45;2.33;;;1.20;;
18822;SDS011;9540;51.550;7.980;2023-04-01T01:34:21;1.70;;;1.48;;
18822;SDS011;9540;51.550;7.980;2023-04-01T01:36:57;2.78;;;0.70;;
18822;SDS011;9540;51.550;7.980;2023-04-01T01:39:28;2.80;;;0.70;;
18822;SDS011;9540;51.550;7.980;2023-04-01T01:42:08;2.50;;;1.00;;
18822;SDS011;9540;51.550;7.980;2023-04-01T01:44:38;2.30;;;1.10;;
18822;SDS011;9540;51.550;7.980;2023-04-01T01:47:08;4.30;;;1.02;;
18822;SDS011;9540;51.550;7.980;2023-04-01T01:49:36;2.08;;;0.75;;
18822;SDS011;9540;51.550;7.980;2023-04-01T01:52:07;0.80;;;0.80;;
18822;SDS011;9540;51.550;7.980;2023-04-01T01:54:34;1.20;;;0.90;;
18822;SDS011;9540;51.550;7.980;2023-04-01T01:57:05;0.80;;;0.80;;
18822;SDS011;9540;51.550;7.980;2023-04-01T01:59:38;1.00;;;1.00;;
18822;SDS011;9540;51.550;7.980;2023-04-01T02:02:08;0.70;;;0.70;;
18822;SDS011;9540;51.550;7.980;2023-04-01T02:04:43;1.80;;;0.80;;
18822;SDS011;9540;51.550;7.980;2023-04-01T02:07:14;0.80;;;0.80;;
18822;SDS011;9540;51.550;7.980;2023-04-01T02:09:46;1.15;;;0.90;;
18822;SDS011;9540;51.550;7.980;2023-04-01T02:12:14;2.80;;;1.13;;
18822;SDS011;9540;51.550;7.980;2023-04-01T02:14:43;2.03;;;0.95;;
18822;SDS011;9540;51.550;7.980;2023-04-01T02:17:14;1.70;;;0.80;;
18822;SDS011;9540;51.550;7.980;2023-04-01T02:19:44;2.95;;;0.80;;
18822;SDS011;9540;51.550;7.980;2023-04-01T02:22:16;1.15;;;0.80;;
18822;SDS011;9540;51.550;7.980;2023-04-01T02:24:46;2.55;;;0.80;;
18822;SDS011;9540;51.550;7.980;2023-04-01T02:27:16;1.33;;;0.80;;
18822;SDS011;9540;51.550;7.980;2023-04-01T02:29:44;2.38;;;1.08;;
18822;SDS011;9540;51.550;7.980;2023-04-01T02:32:11;2.88;;;0.80;;
18822;SDS011;9540;51.550;7.980;2023-04-01T02:34:40;4.32;;;0.80;;
18822;SDS011;9540;51.550;7.980;2023-04-01T02:37:09;1.70;;;0.98;;
18822;SDS011;9540;51.550;7.980;2023-04-01T02:39:39;3.30;;;0.75;;
18822;SDS011;9540;51.550;7.980;2023-04-01T02:42:07;2.65;;;0.70;;
18822;SDS011;9540;51.550;7.980;2023-04-01T02:44:35;1.15;;;0.60;;
18822;SDS011;9540;51.550;7.980;2023-04-01T02:47:03;0.57;;;0.57;;
18822;SDS011;9540;51.550;7.980;2023-04-01T02:49:30;6.35;;;0.80;;
18822;SDS011;9540;51.550;7.980;2023-04-01T02:51:57;1.38;;;0.70;;
18822;SDS011;9540;51.550;7.980;2023-04-01T02:54:25;0.73;;;0.73;;
18822;SDS011;9540;51.550;7.980;2023-04-01T02:56:53;1.95;;;0.60;;
18822;SDS011;9540;51.550;7.980;2023-04-01T02:59:20;0.60;;;0.60;;
18822;SDS011;9540;51.550;7.980;2023-04-01T03:01:47;1.00;;;0.57;;
18822;SDS011;9540;51.550;7.980;2023-04-01T03:04:14;0.70;;;0.70;;
18822;SDS011;9540;51.550;7.980;2023-04-01T03:06:41;0.60;;;0.60;;
18822;SDS011;9540;51.550;7.980;2023-04-01T03:09:08;1.23;;;0.70;;
18822;SDS011;9540;51.550;7.980;2023-04-01T03:11:35;0.70;;;0.70;;
18822;SDS011;9540;51.550;7.980;2023-04-01T03:14:04;1.83;;;0.77;;
18822;SDS011;9540;51.550;7.980;2023-04-01T03:16:32;1.05;;;0.63;;
18822;SDS011;9540;51.550;7.980;2023-04-01T03:18:59;0.82;;;0.70;;
18822;SDS011;9540;51.550;7.980;2023-04-01T03:21:27;0.80;;;0.80;;
18822;SDS011;9540;51.550;7.980;2023-04-01T03:23:54;2.47;;;1.00;;
18822;SDS011;9540;51.550;7.980;2023-04-01T03:26:21;0.93;;;0.82;;
18822;SDS011;9540;51.550;7.980;2023-04-01T03:28:48;2.33;;;0.88;;
18822;SDS011;9540;51.550;7.980;2023-04-01T03:31:16;2.38;;;0.82;;
18822;SDS011;9540;51.550;7.980;2023-04-01T03:33:44;1.45;;;0.93;;
18822;SDS011;9540;51.550;7.980;2023-04-01T03:36:11;0.82;;;0.55;;
18822;SDS011;9540;51.550;7.980;2023-04-01T03:38:39;0.90;;;0.90;;
18822;SDS011;9540;51.550;7.980;2023-04-01T03:41:07;1.90;;;0.80;;
18822;SDS011;9540;51.550;7.980;2023-04-01T03:43:38;0.80;;;0.80;;
18822;SDS011;9540;51.550;7.980;2023-04-01T03:46:05;0.98;;;0.77;;
18822;SDS011;9540;51.550;7.980;2023-04-01T03:48:34;0.70;;;0.70;;
18822;SDS011;9540;51.550;7.980;2023-04-01T03:51:02;0.65;;;0.65;;
18822;SDS011;9540;51.550;7.980;2023-04-01T03:53:33;0.95;;;0.63;;
18822;SDS011;9540;51.550;7.980;2023-04-01T03:56:03;2.42;;;0.80;;
18822;SDS011;9540;51.550;7.980;2023-04-01T03:58:30;0.95;;;0.73;;
18822;SDS011;9540;51.550;7.980;2023-04-01T04:00:57;0.70;;;0.70;;
18822;SDS011;9540;51.550;7.980;2023-04-01T04:03:25;0.88;;;0.88;;
18822;SDS011;9540;51.550;7.980;2023-04-01T04:05:53;0.52;;;0.52;;
18822;SDS011;9540;51.550;7.980;2023-04-01T04:08:21;0.60;;;0.60;;
18822;SDS011;9540;51.550;7.980;2023-04-01T04:10:54;1.23;;;0.63;;
18822;SDS011;9540;51.550;7.980;2023-04-01T04:13:21;0.80;;;0.80;;
18822;SDS011;9540;51.550;7.980;2023-04-01T04:15:48;0.95;;;0.60;;
18822;SDS011;9540;51.550;7.980;2023-04-01T04:18:15;0.98;;;0.85;;
18822;SDS011;9540;51.550;7.980;2023-04-01T04:20:43;1.23;;;0.60;;
18822;SDS011;9540;51.550;7.980;2023-04-01T04:23:13;1.70;;;0.77;;
18822;SDS011;9540;51.550;7.980;2023-04-01T04:25:40;0.70;;;0.70;;
18822;SDS011;9540;51.550;7.980;2023-04-01T04:28:08;2.05;;;0.70;;
18822;SDS011;9540;51.550;7.980;2023-04-01T04:30:35;0.70;;;0.70;;
18822;SDS011;9540;51.550;7.980;2023-04-01T04:33:02;0.90;;;0.70;;
18822;SDS011;9540;51.550;7.980;2023-04-01T04:35:29;4.07;;;0.63;;
18822;SDS011;9540;51.550;7.980;2023-04-01T04:37:56;0.60;;;0.60;;
18822;SDS011;9540;51.550;7.980;2023-04-01T04:40:25;2.40;;;0.63;;
18822;SDS011;9540;51.550;7.980;2023-04-01T04:42:52;0.93;;;0.60;;
18822;SDS011;9540;51.550;7.980;2023-04-01T04:45:19;0.52;;;0.52;;
18822;SDS011;9540;51.550;7.980;2023-04-01T04:47:46;0.70;;;0.70;;
18822;SDS011;9540;51.550;7.980;2023-04-01T04:50:13;1.55;;;0.70;;
18822;SDS011;9540;51.550;7.980;2023-04-01T04:52:41;0.60;;;0.60;;
18822;SDS011;9540;51.550;7.980;2023-04-01T04:55:09;1.98;;;0.52;;
18822;SDS011;9540;51.550;7.980;2023-04-01T04:57:37;0.63;;;0.63;;
18822;SDS011;9540;51.550;7.980;2023-04-01T05:00:05;0.52;;;0.52;;
18822;SDS011;9540;51.550;7.980;2023-04-01T05:02:35;0.70;;;0.70;;
18822;SDS011;9540;51.550;7.980;2023-04-01T05:05:02;1.55;;;0.70;;
18822;SDS011;9540;51.550;7.980;2023-04-01T05:07:30;0.57;;;0.57;;
18822;SDS011;9540;51.550;7.980;2023-04-01T05:09:57;1.13;;;0.85;;
18822;SDS011;9540;51.550;7.980;2023-04-01T05:12:24;0.70;;;0.70;;
18822;SDS011;9540;51.550;7.980;2023-04-01T05:14:53;1.60;;;0.68;;
18822;SDS011;9540;51.550;7.980;2023-04-01T05:17:20;0.63;;;0.63;;
18822;SDS011;9540;51.550;7.980;2023-04-01T05:19:47;0.80;;;0.80;;
18822;SDS011;9540;51.550;7.980;2023-04-01T05:22:14;1.75;;;0.70;;
18822;SDS011;9540;51.550;7.980;2023-04-01T05:24:41;1.73;;;0.80;;
18822;SDS011;9540;51.550;7.980;2023-04-01T05:27:09;0.93;;;0.80;;
18822;SDS011;9540;51.550;7.980;2023-04-01T05:29:36;0.70;;;0.70;;
18822;SDS011;9540;51.550;7.980;2023-04-01T05:32:05;0.65;;;0.65;;
18822;SDS011;9540;51.550;7.980;2023-04-01T05:34:34;1.02;;;0.70;;
18822;SDS011;9540;51.550;7.980;2023-04-01T05:37:01;0.80;;;0.80;;
18822;SDS011;9540;51.550;7.980;2023-04-01T05:39:28;1.15;;;0.90;;
18822;SDS011;9540;51.550;7.980;2023-04-01T05:41:55;1.02;;;0.93;;
18822;SDS011;9540;51.550;7.980;2023-04-01T05:44:22;1.05;;;0.80;;
18822;SDS011;9540;51.550;7.980;2023-04-01T05:46:49;0.85;;;0.85;;
18822;SDS011;9540;51.550;7.980;2023-04-01T05:49:18;2.55;;;0.80;;
18822;SDS011;9540;51.550;7.980;2023-04-01T05:51:45;0.70;;;0.70;;
18822;SDS011;9540;51.550;7.980;2023-04-01T05:54:12;0.90;;;0.70;;
18822;SDS011;9540;51.550;7.980;2023-04-01T05:56:39;0.60;;;0.60;;
18822;SDS011;9540;51.550;7.980;2023-04-01T05:59:06;0.98;;;0.88;;
18822;SDS011;9540;51.550;7.980;2023-04-01T06:01:36;1.85;;;0.80;;
18822;SDS011;9540;51.550;7.980;2023-04-01T06:04:03;0.75;;;0.75;;
18822;SDS011;9540;51.550;7.980;2023-04-01T06:06:32;0.60;;;0.60;;
18822;SDS011;9540;51.550;7.980;2023-04-01T06:09:05;1.20;;;1.10;;
18822;SDS011;9540;51.550;7.980;2023-04-01T06:11:40;2.88;;;1.77;;
18822;SDS011;9540;51.550;7.980;2023-04-01T06:14:32;0.73;;;0.73;;
18822;SDS011;9540;51.550;7.980;2023-04-01T06:17:18;1.08;;;0.63;;
18822;SDS011;9540;51.550;7.980;2023-04-01T06:19:54;1.13;;;0.80;;
18822;SDS011;9540;51.550;7.980;2023-04-01T06:22:48;0.80;;;0.80;;
18822;SDS011;9540;51.550;7.980;2023-04-01T06:28:30;0.60;;;0.60;;
18822;SDS011;9540;51.550;7.980;2023-04-01T06:31:24;1.88;;;0.80;;
18822;SDS011;9540;51.550;7.980;2023-04-01T06:34:08;3.22;;;0.77;;
18822;SDS011;9540;51.550;7.980;2023-04-01T06:36:56;1.65;;;0.55;;
18822;SDS011;9540;51.550;7.980;2023-04-01T06:39:42;0.70;;;0.70;;
18822;SDS011;9540;51.550;7.980;2023-04-01T06:42:45;0.50;;;0.50;;
18822;SDS011;9540;51.550;7.980;2023-04-01T06:45:25;1.55;;;0.80;;
18822;SDS011;9540;51.550;7.980;2023-04-01T06:48:02;0.70;;;0.70;;
18822;SDS011;9540;51.550;7.980;2023-04-01T06:50:43;0.60;;;0.60;;
18822;SDS011;9540;51.550;7.980;2023-04-01T06:53:19;0.90;;;0.90;;
18822;SDS011;9540;51.550;7.980;2023-04-01T06:55:53;0.70;;;0.70;;
18822;SDS011;9540;51.550;7.980;2023-04-01T06:58:27;1.00;;;0.52;;
18822;SDS011;9540;51.550;7.980;2023-04-01T07:01:00;0.70;;;0.70;;
18822;SDS011;9540;51.550;7.980;2023-04-01T07:03:31;1.17;;;0.70;;
18822;SDS011;9540;51.550;7.980;2023-04-01T07:06:02;0.55;;;0.55;;
18822;SDS011;9540;51.550;7.980;2023-04-01T07:08:31;0.90;;;0.90;;
18822;SDS011;9540;51.550;7.980;2023-04-01T07:11:04;0.80;;;0.80;;
18822;SDS011;9540;51.550;7.980;2023-04-01T07:13:33;0.68;;;0.50;;
18822;SDS011;9540;51.550;7.980;2023-04-01T07:16:08;0.80;;;0.70;;
18822;SDS011;9540;51.550;7.980;2023-04-01T07:18:41;0.70;;;0.70;;
18822;SDS011;9540;51.550;7.980;2023-04-01T07:21:15;0.88;;;0.60;;
18822;SDS011;9540;51.550;7.980;2023-04-01T07:23:49;1.33;;;0.98;;
18822;SDS011;9540;51.550;7.980;2023-04-01T07:26:20;9.63;;;1.10;;
18822;SDS011;9540;51.550;7.980;2023-04-01T07:28:48;1.25;;;1.20;;
18822;SDS011;9540;51.550;7.980;2023-04-01T07:31:20;0.70;;;0.70;;
18822;SDS011;9540;51.550;7.980;2023-04-01T07:33:57;0.60;;;0.60;;
18822;SDS011;9540;51.550;7.980;2023-04-01T07:36:33;0.65;;;0.65;;
18822;SDS011;9540;51.550;7.980;2023-04-01T07:39:08;1.38;;;0.68;;
18822;SDS011;9540;51.550;7.980;2023-04-01T07:41:50;0.50;;;0.50;;
18822;SDS011;9540;51.550;7.980;2023-04-01T07:44:24;0.40;;;0.40;;
18822;SDS011;9540;51.550;7.980;2023-04-01T07:47:05;0.47;;;0.47;;
18822;SDS011;9540;51.550;7.980;2023-04-01T07:49:49;0.52;;;0.52;;
18822;SDS011;9540;51.550;7.980;2023-04-01T07:52:27;0.50;;;0.50;;
18822;SDS011;9540;51.550;7.980;2023-04-01T07:55:02;1.27;;;0.80;;
18822;SDS011;9540;51.550;7.980;2023-04-01T07:57:42;0.50;;;0.50;;
18822;SDS011;9540;51.550;7.980;2023-04-01T08:00:16;0.60;;;0.60;;
18822;SDS011;9540;51.550;7.980;2023-04-01T08:02:51;0.65;;;0.65;;
18822;SDS011;9540;51.550;7.980;2023-04-01T08:05:32;0.60;;;0.60;;
18822;SDS011;9540;51.550;7.980;2023-04-01T08:08:09;0.57;;;0.57;;
18822;SDS011;9540;51.550;7.980;2023-04-01T08:10:46;0.50;;;0.50;;
18822;SDS011;9540;51.550;7.980;2023-04-01T08:13:20;0.50;;;0.50;;
18822;SDS011;9540;51.550;7.980;2023-04-01T08:15:57;1.52;;;0.70;;
18822;SDS011;9540;51.550;7.980;2023-04-01T08:18:36;4.38;;;0.60;;
18822;SDS011;9540;51.550;7.980;2023-04-01T08:21:10;0.60;;;0.60;;
18822;SDS011;9540;51.550;7.980;2023-04-01T08:23:44;0.60;;;0.60;;
18822;SDS011;9540;51.550;7.980;2023-04-01T08:26:15;0.70;;;0.70;;
18822;SDS011;9540;51.550;7.980;2023-04-01T08:28:54;0.68;;;0.68;;
18822;SDS011;9540;51.550;7.980;2023-04-01T08:31:29;1.00;;;0.60;;
18822;SDS011;9540;51.550;7.980;2023-04-01T08:34:03;0.50;;;0.50;;
18822;SDS011;9540;51.550;7.980;2023-04-01T08:36:37;1.30;;;0.90;;
18822;SDS011;9540;51.550;7.980;2023-04-01T08:39:08;1.65;;;0.60;;
18822;SDS011;9540;51.550;7.980;2023-04-01T08:41:49;1.40;;;0.60;;
18822;SDS011;9540;51.550;7.980;2023-04-01T08:47:46;0.50;;;0.50;;
18822;SDS011;9540;51.550;7.980;2023-04-01T08:50:30;0.63;;;0.63;;
18822;SDS011;9540;51.550;7.980;2023-04-01T08:53:21;1.05;;;0.70;;
18822;SDS011;9540;51.550;7.980;2023-04-01T08:56:03;1.00;;;0.63;;
18822;SDS011;9540;51.550;7.980;2023-04-01T09:01:57;0.50;;;0.50;;
18822;SDS011;9540;51.550;7.980;2023-04-01T09:04:39;1.60;;;0.60;;
18822;SDS011;9540;51.550;7.980;2023-04-01T09:07:28;0.47;;;0.47;;
18822;SDS011;9540;51.550;7.980;2023-04-01T09:10:18;0.60;;;0.60;;
18822;SDS011;9540;51.550;7.980;2023-04-01T09:12:59;1.75;;;0.80;;
18822;SDS011;9540;51.550;7.980;2023-04-01T09:18:44;0.43;;;0.43;;
18822;SDS011;9540;51.550;7.980;2023-04-01T09:21:42;1.65;;;0.70;;
18822;SDS011;9540;51.550;7.980;2023-04-01T09:24:38;0.68;;;0.68;;
18822;SDS011;9540;51.550;7.980;2023-04-01T09:27:27;0.80;;;0.60;;
18822;SDS011;9540;51.550;7.980;2023-04-01T09:33:04;0.50;;;0.50;;
18822;SDS011;9540;51.550;7.980;2023-04-01T09:35:54;2.25;;;0.70;;
18822;SDS011;9540;51.550;7.980;2023-04-01T09:38:30;0.50;;;0.50;;
18822;SDS011;9540;51.550;7.980;2023-04-01T09:41:11;0.85;;;0.65;;
18822;SDS011;9540;51.550;7.980;2023-04-01T09:43:53;0.82;;;0.55;;
18822;SDS011;9540;51.550;7.980;2023-04-01T09:46:31;0.52;;;0.52;;
18822;SDS011;9540;51.550;7.980;2023-04-01T09:49:26;0.55;;;0.55;;
18822;SDS011;9540;51.550;7.980;2023-04-01T09:52:20;0.50;;;0.50;;
18822;SDS011;9540;51.550;7.980;2023-04-01T09:55:06;0.80;;;0.80;;
18822;SDS011;9540;51.550;7.980;2023-04-01T10:10:32;1.25;;;0.70;;
18822;SDS011;9540;51.550;7.980;2023-04-01T10:25:21;1.13;;;1.00;;
18822;SDS011;9540;51.550;7.980;2023-04-01T10:37:49;1.25;;;1.15;;
18822;SDS011;9540;51.550;7.980;2023-04-01T10:40:37;1.00;;;1.00;;
18822;SDS011;9540;51.550;7.980;2023-04-01T10:43:23;1.00;;;0.95;;
18822;SDS011;9540;51.550;7.980;2023-04-01T10:52:18;1.30;;;1.20;;
18822;SDS011;9540;51.550;7.980;2023-04-01T10:54:58;1.10;;;1.10;;
18822;SDS011;9540;51.550;7.980;2023-04-01T10:57:53;1.30;;;1.30;;
18822;SDS011;9540;51.550;7.980;2023-04-01T11:00:45;1.48;;;1.35;;
18822;SDS011;9540;51.550;7.980;2023-04-01T11:13:17;1.73;;;1.63;;
18822;SDS011;9540;51.550;7.980;2023-04-01T11:22:12;2.28;;;2.10;;
18822;SDS011;9540;51.550;7.980;2023-04-01T11:25:18;4.60;;;2.10;;
18822;SDS011;9540;51.550;7.980;2023-04-01T11:28:11;2.50;;;2.30;;
18822;SDS011;9540;51.550;7.980;2023-04-01T11:31:04;3.08;;;2.88;;
18822;SDS011;9540;51.550;7.980;2023-04-01T11:33:51;3.65;;;2.80;;
18822;SDS011;9540;51.550;7.980;2023-04-01T11:36:29;3.10;;;2.80;;
18822;SDS011;9540;51.550;7.980;2023-04-01T11:39:11;3.65;;;3.35;;
18822;SDS011;9540;51.550;7.980;2023-04-01T11:41:49;5.03;;;3.55;;
18822;SDS011;9540;51.550;7.980;2023-04-01T11:44:24;8.02;;;4.15;;
18822;SDS011;9540;51.550;7.980;2023-04-01T11:47:00;6.60;;;5.13;;
18822;SDS011;9540;51.550;7.980;2023-04-01T11:49:56;5.32;;;4.82;;
18822;SDS011;9540;51.550;7.980;2023-04-01T11:52:38;5.70;;;4.38;;
18822;SDS011;9540;51.550;7.980;2023-04-01T11:55:32;6.28;;;5.25;;
18822;SDS011;9540;51.550;7.980;2023-04-01T11:58:12;6.65;;;5.55;;
18822;SDS011;9540;51.550;7.980;2023-04-01T12:01:08;6.25;;;5.00;;
18822;SDS011;9540;51.550;7.980;2023-04-01T12:06:48;5.72;;;5.13;;
18822;SDS011;9540;51.550;7.980;2023-04-01T12:09:21;3.95;;;3.50;;
18822;SDS011;9540;51.550;7.980;2023-04-01T12:12:00;4.45;;;4.00;;
18822;SDS011;9540;51.550;7.980;2023-04-01T12:14:39;4.32;;;3.92;;
18822;SDS011;9540;51.550;7.980;2023-04-01T12:17:18;4.95;;;4.22;;
18822;SDS011;9540;51.550;7.980;2023-04-01T12:19:59;4.35;;;3.95;;
18822;SDS011;9540;51.550;7.980;2023-04-01T12:22:43;3.60;;;3.25;;
18822;SDS011;9540;51.550;7.980;2023-04-01T12:25:20;3.58;;;3.28;;
18822;SDS011;9540;51.550;7.980;2023-04-01T12:27:59;3.42;;;3.13;;
18822;SDS011;9540;51.550;7.980;2023-04-01T12:30:37;2.80;;;2.60;;
18822;SDS011;9540;51.550;7.980;2023-04-01T12:36:18;2.97;;;2.78;;
18822;SDS011;9540;51.550;7.980;2023-04-01T12:39:00;2.50;;;2.30;;
18822;SDS011;9540;51.550;7.980;2023-04-01T12:41:53;3.22;;;2.92;;
18822;SDS011;9540;51.550;7.980;2023-04-01T12:44:29;2.70;;;2.50;;
18822;SDS011;9540;51.550;7.980;2023-04-01T12:47:15;2.28;;;2.17;;
18822;SDS011;9540;51.550;7.980;2023-04-01T12:49:57;3.05;;;2.15;;
18822;SDS011;9540;51.550;7.980;2023-04-01T12:52:47;2.20;;;2.10;;
18822;SDS011;9540;51.550;7.980;2023-04-01T12:55:35;2.88;;;2.15;;
18822;SDS011;9540;51.550;7.980;2023-04-01T13:01:18;2.30;;;2.00;;
18822;SDS011;9540;51.550;7.980;2023-04-01T13:04:02;2.95;;;2.30;;
18822;SDS011;9540;51.550;7.980;2023-04-01T13:06:54;2.85;;;2.45;;
18822;SDS011;9540;51.550;7.980;2023-04-01T13:09:38;2.67;;;2.47;;
18822;SDS011;9540;51.550;7.980;2023-04-01T13:15:16;3.22;;;2.47;;
18822;SDS011;9540;51.550;7.980;2023-04-01T13:17:57;3.60;;;3.30;;
18822;SDS011;9540;51.550;7.980;2023-04-01T13:20:35;3.00;;;2.50;;
18822;SDS011;9540;51.550;7.980;2023-04-01T13:23:23;3.25;;;2.95;;
18822;SDS011;9540;51.550;7.980;2023-04-01T13:26:03;2.90;;;2.70;;
18822;SDS011;9540;51.550;7.980;2023-04-01T13:28:40;2.20;;;2.10;;
18822;SDS011;9540;51.550;7.980;2023-04-01T13:31:24;2.20;;;2.10;;
18822;SDS011;9540;51.550;7.980;2023-04-01T13:34:00;2.10;;;2.00;;
18822;SDS011;9540;51.550;7.980;2023-04-01T13:36:46;2.88;;;2.67;;
18822;SDS011;9540;51.550;7.980;2023-04-01T13:39:32;3.00;;;2.80;;
18822;SDS011;9540;51.550;7.980;2023-04-01T13:42:14;2.28;;;2.15;;
18822;SDS011;9540;51.550;7.980;2023-04-01T13:44:48;2.72;;;2.53;;
18822;SDS011;9540;51.550;7.980;2023-04-01T13:50:30;2.20;;;1.95;;
18822;SDS011;9540;51.550;7.980;2023-04-01T13:53:16;2.90;;;2.40;;
18822;SDS011;9540;51.550;7.980;2023-04-01T13:56:07;2.58;;;2.22;;
18822;SDS011;9540;51.550;7.980;2023-04-01T13:58:57;3.08;;;2.88;;
18822;SDS011;9540;51.550;7.980;2023-04-01T14:01:44;2.55;;;2.35;;
18822;SDS011;9540;51.550;7.980;2023-04-01T14:04:27;2.90;;;2.70;;
18822;SDS011;9540;51.550;7.980;2023-04-01T14:07:15;3.67;;;2.53;;
18822;SDS011;9540;51.550;7.980;2023-04-01T14:09:51;3.88;;;3.47;;
18822;SDS011;9540;51.550;7.980;2023-04-01T14:12:29;3.60;;;3.30;;
18822;SDS011;9540;51.550;7.980;2023-04-01T14:15:07;4.00;;;3.33;;
18822;SDS011;9540;51.550;7.980;2023-04-01T14:18:02;4.50;;;3.92;;
18822;SDS011;9540;51.550;7.980;2023-04-01T14:20:46;6.65;;;4.20;;
18822;SDS011;9540;51.550;7.980;2023-04-01T14:23:24;4.53;;;4.13;;
18822;SDS011;9540;51.550;7.980;2023-04-01T14:26:30;5.13;;;4.10;;
18822;SDS011;9540;51.550;7.980;2023-04-01T14:29:23;5.25;;;4.60;;
18822;SDS011;9540;51.550;7.980;2023-04-01T14:32:02;5.28;;;4.45;;
18822;SDS011;9540;51.550;7.980;2023-04-01T14:34:47;7.00;;;3.70;;
18822;SDS011;9540;51.550;7.980;2023-04-01T14:37:29;5.05;;;4.35;;
18822;SDS011;9540;51.550;7.980;2023-04-01T14:40:33;7.47;;;4.15;;
18822;SDS011;9540;51.550;7.980;2023-04-01T14:43:21;5.03;;;4.10;;
18822;SDS011;9540;51.550;7.980;2023-04-01T14:49:15;6.60;;;4.75;;
18822;SDS011;9540;51.550;7.980;2023-04-01T14:51:48;6.93;;;4.82;;
18822;SDS011;9540;51.550;7.980;2023-04-01T14:54:17;11.10;;;6.05;;
18822;SDS011;9540;51.550;7.980;2023-04-01T14:56:49;8.77;;;5.70;;
18822;SDS011;9540;51.550;7.980;2023-04-01T14:59:26;6.72;;;5.32;;
18822;SDS011;9540;51.550;7.980;2023-04-01T15:01:56;9.82;;;6.43;;
18822;SDS011;9540;51.550;7.980;2023-04-01T15:04:46;7.20;;;5.78;;
18822;SDS011;9540;51.550;7.980;2023-04-01T15:07:21;7.88;;;6.00;;
18822;SDS011;9540;51.550;7.980;2023-04-01T15:10:17;10.15;;;6.88;;
18822;SDS011;9540;51.550;7.980;2023-04-01T15:12:59;8.35;;;6.40;;
18822;SDS011;9540;51.550;7.980;2023-04-01T15:15:40;8.43;;;6.00;;
18822;SDS011;9540;51.550;7.980;2023-04-01T15:18:21;10.43;;;6.40;;
18822;SDS011;9540;51.550;7.980;2023-04-01T15:21:06;8.95;;;6.32;;
18822;SDS011;9540;51.550;7.980;2023-04-01T15:23:48;9.93;;;6.22;;
18822;SDS011;9540;51.550;7.980;2023-04-01T15:26:37;10.18;;;5.82;;
18822;SDS011;9540;51.550;7.980;2023-04-01T15:32:08;12.10;;;6.40;;
18822;SDS011;9540;51.550;7.980;2023-04-01T15:34:43;6.75;;;5.45;;
18822;SDS011;9540;51.550;7.980;2023-04-01T15:37:26;8.73;;;6.18;;
18822;SDS011;9540;51.550;7.980;2023-04-01T15:40:02;8.68;;;5.65;;
18822;SDS011;9540;51.550;7.980;2023-04-01T15:42:44;8.02;;;5.35;;
18822;SDS011;9540;51.550;7.980;2023-04-01T15:45:31;4.72;;;4.18;;
18822;SDS011;9540;51.550;7.980;2023-04-01T15:48:06;3.67;;;3.35;;
18822;SDS011;9540;51.550;7.980;2023-04-01T15:51:01;4.70;;;4.30;;
18822;SDS011;9540;51.550;7.980;2023-04-01T15:53:42;5.25;;;4.65;;
18822;SDS011;9540;51.550;7.980;2023-04-01T15:56:28;4.38;;;3.97;;
18822;SDS011;9540;51.550;7.980;2023-04-01T15:59:14;4.85;;;4.38;;
18822;SDS011;9540;51.550;7.980;2023-04-01T16:01:53;5.80;;;4.30;;
18822;SDS011;9540;51.550;7.980;2023-04-01T16:04:33;6.82;;;4.80;;
18822;SDS011;9540;51.550;7.980;2023-04-01T16:10:17;4.82;;;3.45;;
18822;SDS011;9540;51.550;7.980;2023-04-01T16:12:58;3.70;;;3.40;;
18822;SDS011;9540;51.550;7.980;2023-04-01T16:15:37;4.15;;;3.63;;
18822;SDS011;9540;51.550;7.980;2023-04-01T16:18:20;5.50;;;4.13;;
18822;SDS011;9540;51.550;7.980;2023-04-01T16:21:05;6.93;;;4.32;;
18822;SDS011;9540;51.550;7.980;2023-04-01T16:23:37;5.63;;;4.32;;
18822;SDS011;9540;51.550;7.980;2023-04-01T16:26:13;6.28;;;4.72;;
18822;SDS011;9540;51.550;7.980;2023-04-01T16:28:48;9.27;;;5.28;;
18822;SDS011;9540;51.550;7.980;2023-04-01T16:31:32;8.65;;;6.10;;
18822;SDS011;9540;51.550;7.980;2023-04-01T16:34:07;9.77;;;6.07;;
18822;SDS011;9540;51.550;7.980;2023-04-01T16:36:41;7.55;;;6.05;;
18822;SDS011;9540;51.550;7.980;2023-04-01T16:39:19;8.35;;;6.13;;
18822;SDS011;9540;51.550;7.980;2023-04-01T16:42:16;8.95;;;6.20;;
18822;SDS011;9540;51.550;7.980;2023-04-01T16:44:50;8.82;;;6.80;;
18822;SDS011;9540;51.550;7.980;2023-04-01T16:47:21;11.43;;;8.23;;
18822;SDS011;9540;51.550;7.980;2023-04-01T16:49:54;11.75;;;8.10;;
18822;SDS011;9540;51.550;7.980;2023-04-01T16:52:32;12.57;;;8.50;;
18822;SDS011;9540;51.550;7.980;2023-04-01T16:55:14;13.57;;;8.48;;
18822;SDS011;9540;51.550;7.980;2023-04-01T16:57:46;12.48;;;8.20;;
18822;SDS011;9540;51.550;7.980;2023-04-01T17:00:23;11.18;;;7.85;;
18822;SDS011;9540;51.550;7.980;2023-04-01T17:02:57;11.25;;;8.05;;
18822;SDS011;9540;51.550;7.980;2023-04-01T17:05:37;10.80;;;7.38;;
18822;SDS011;9540;51.550;7.980;2023-04-01T17:08:14;10.52;;;7.50;;
18822;SDS011;9540;51.550;7.980;2023-04-01T17:10:50;12.77;;;8.02;;
18822;SDS011;9540;51.550;7.980;2023-04-01T17:13:35;11.60;;;7.70;;
18822;SDS011;9540;51.550;7.980;2023-04-01T17:16:16;14.90;;;9.20;;
18822;SDS011;9540;51.550;7.980;2023-04-01T17:18:56;14.60;;;9.65;;
18822;SDS011;9540;51.550;7.980;2023-04-01T17:21:38;17.08;;;10.43;;
18822;SDS011;9540;51.550;7.980;2023-04-01T17:24:18;16.90;;;11.27;;
18822;SDS011;9540;51.550;7.980;2023-04-01T17:26:55;18.00;;;10.13;;
18822;SDS011;9540;51.550;7.980;2023-04-01T17:29:31;17.02;;;10.82;;
18822;SDS011;9540;51.550;7.980;2023-04-01T17:32:22;16.20;;;10.80;;
18822;SDS011;9540;51.550;7.980;2023-04-01T17:35:02;22.20;;;13.65;;
18822;SDS011;9540;51.550;7.980;2023-04-01T17:37:37;22.05;;;12.63;;
18822;SDS011;9540;51.550;7.980;2023-04-01T17:40:17;21.98;;;12.98;;
18822;SDS011;9540;51.550;7.980;2023-04-01T17:42:58;22.10;;;13.23;;